createdAt,value
2022-12-19T00:00:48.622Z,15.50
2022-12-19T00:03:16.003Z,15.60
2022-12-19T00:05:43.253Z,17.30
2022-12-19T00:08:17.939Z,16.10
2022-12-19T00:10:55.460Z,16.63
2022-12-19T00:13:22.657Z,16.00
2022-12-19T00:15:49.790Z,15.20
2022-12-19T00:18:17.772Z,16.00
2022-12-19T00:20:44.967Z,15.33
2022-12-19T00:23:13.831Z,14.70
2022-12-19T00:25:40.942Z,16.00
2022-12-19T00:28:17.827Z,16.20
2022-12-19T00:30:48.321Z,15.87
2022-12-19T00:33:16.412Z,18.30
2022-12-19T00:35:46.202Z,16.00
2022-12-19T00:38:30.621Z,16.53
2022-12-19T00:41:06.742Z,16.00
2022-12-19T00:43:33.814Z,15.80
2022-12-19T00:46:03.078Z,16.33
2022-12-19T00:48:30.950Z,15.90
2022-12-19T00:51:04.761Z,15.03
2022-12-19T00:53:33.928Z,16.53
2022-12-19T00:56:04.565Z,17.07
2022-12-19T00:58:35.298Z,16.77
2022-12-19T01:01:25.983Z,17.53
2022-12-19T01:04:26.613Z,16.07
2022-12-19T01:06:41.638Z,15.87
2022-12-19T01:09:09.647Z,15.93
2022-12-19T01:11:55.492Z,15.50
2022-12-19T01:14:23.279Z,15.93
2022-12-19T01:16:51.349Z,16.83
2022-12-19T01:19:19.252Z,16.90
2022-12-19T01:21:50.247Z,17.57
2022-12-19T01:24:19.209Z,17.30
2022-12-19T01:26:46.465Z,15.63
2022-12-19T01:29:17.624Z,17.97
2022-12-19T01:31:49.555Z,15.97
2022-12-19T01:34:20.920Z,16.83
2022-12-19T01:36:51.160Z,17.97
2022-12-19T01:39:18.214Z,17.90
2022-12-19T01:41:45.440Z,17.20
2022-12-19T01:44:12.491Z,16.10
2022-12-19T01:46:41.905Z,17.00
2022-12-19T01:49:17.086Z,16.27
2022-12-19T01:51:50.115Z,18.03
2022-12-19T01:54:20.943Z,16.43
2022-12-19T01:56:50.929Z,16.00
2022-12-19T01:59:25.226Z,16.60
2022-12-19T02:02:01.338Z,16.70
2022-12-19T02:04:32.631Z,16.90
2022-12-19T02:07:00.321Z,15.97
2022-12-19T02:09:35.164Z,16.43
2022-12-19T02:12:02.404Z,16.37
2022-12-19T02:14:29.494Z,18.37
2022-12-19T02:17:13.174Z,16.87
2022-12-19T02:19:58.751Z,19.03
2022-12-19T02:22:41.066Z,16.67
2022-12-19T02:25:26.448Z,16.20
2022-12-19T02:28:02.464Z,16.30
2022-12-19T02:30:48.395Z,17.30
2022-12-19T02:33:34.406Z,17.23
2022-12-19T02:36:08.243Z,16.87
2022-12-19T02:38:47.801Z,17.40
2022-12-19T02:41:19.473Z,15.80
2022-12-19T02:43:49.609Z,16.57
2022-12-19T02:46:21.261Z,16.60
2022-12-19T02:48:48.732Z,15.97
2022-12-19T02:51:15.819Z,17.83
2022-12-19T02:53:43.138Z,17.13
2022-12-19T02:56:16.833Z,17.80
2022-12-19T02:58:44.040Z,17.57
2022-12-19T03:01:21.468Z,18.20
2022-12-19T03:03:58.537Z,17.87
2022-12-19T03:06:28.179Z,18.40
2022-12-19T03:09:08.217Z,16.83
2022-12-19T03:11:37.135Z,16.93
2022-12-19T03:14:08.906Z,16.90
2022-12-19T03:16:36.938Z,16.93
2022-12-19T03:19:05.318Z,17.37
2022-12-19T03:21:35.931Z,16.77
2022-12-19T03:24:04.427Z,17.33
2022-12-19T03:26:57.402Z,16.17
2022-12-19T03:29:32.820Z,17.90
2022-12-19T03:32:01.527Z,19.10
2022-12-19T03:34:32.031Z,18.30
2022-12-19T03:37:02.158Z,18.10
2022-12-19T03:39:29.994Z,17.17
2022-12-19T03:42:16.986Z,17.43
2022-12-19T03:44:44.313Z,15.33
2022-12-19T03:47:11.824Z,16.50
2022-12-19T03:49:39.130Z,16.93
2022-12-19T03:52:12.790Z,16.47
2022-12-19T03:54:41.317Z,17.27
2022-12-19T03:57:10.531Z,18.37
2022-12-19T03:59:50.254Z,16.03
2022-12-19T04:02:18.947Z,17.30
2022-12-19T04:04:47.624Z,17.87
2022-12-19T04:07:15.241Z,19.13
2022-12-19T04:09:43.381Z,16.00
2022-12-19T04:12:16.399Z,16.87
2022-12-19T04:14:43.628Z,17.43
2022-12-19T04:17:16.313Z,17.33
2022-12-19T04:19:47.606Z,16.70
2022-12-19T04:22:18.514Z,16.83
2022-12-19T04:24:46.919Z,17.87
2022-12-19T04:27:14.914Z,17.33
2022-12-19T04:29:42.256Z,18.10
2022-12-19T04:32:10.684Z,15.40
2022-12-19T04:34:42.603Z,17.70
2022-12-19T04:37:10.358Z,17.30
2022-12-19T04:39:37.556Z,17.33
2022-12-19T04:42:04.737Z,17.87
2022-12-19T04:44:31.883Z,16.20
2022-12-19T04:46:58.929Z,18.67
2022-12-19T04:49:26.086Z,17.53
2022-12-19T04:51:54.310Z,18.63
2022-12-19T04:54:22.260Z,18.17
2022-12-19T04:57:01.149Z,17.23
2022-12-19T04:59:28.490Z,16.30
2022-12-19T05:02:16.088Z,17.43
2022-12-19T05:04:43.378Z,17.97
2022-12-19T05:07:18.590Z,16.80
2022-12-19T05:13:24.652Z,15.63
2022-12-19T05:16:36.568Z,16.57
2022-12-19T05:19:14.835Z,15.20
2022-12-19T05:21:46.533Z,16.30
2022-12-19T05:24:40.721Z,17.20
2022-12-19T05:27:08.077Z,17.13
2022-12-19T05:29:35.174Z,15.83
2022-12-19T05:32:02.608Z,17.17
2022-12-19T05:34:29.825Z,16.53
2022-12-19T05:36:56.957Z,16.00
2022-12-19T05:39:24.586Z,16.10
2022-12-19T05:41:51.723Z,16.90
2022-12-19T05:44:18.843Z,18.67
2022-12-19T05:46:46.082Z,19.90
2022-12-19T05:49:13.388Z,16.80
2022-12-19T05:51:40.954Z,16.43
2022-12-19T05:54:08.041Z,16.30
2022-12-19T05:56:35.310Z,15.87
2022-12-19T05:59:02.349Z,16.83
2022-12-19T06:01:30.232Z,15.87
2022-12-19T06:03:57.357Z,15.17
2022-12-19T06:06:26.000Z,16.70
2022-12-19T06:08:59.861Z,16.27
2022-12-19T06:11:33.280Z,16.30
2022-12-19T06:14:06.738Z,15.17
2022-12-19T06:16:42.112Z,15.90
2022-12-19T06:19:10.147Z,16.03
2022-12-19T06:21:47.478Z,16.70
2022-12-19T06:24:19.719Z,17.43
2022-12-19T06:26:48.704Z,17.47
2022-12-19T06:29:20.861Z,17.17
2022-12-19T06:31:48.630Z,16.70
2022-12-19T06:34:33.204Z,17.30
2022-12-19T06:37:08.106Z,17.53
2022-12-19T06:39:35.684Z,16.97
2022-12-19T06:42:21.299Z,17.50
2022-12-19T06:44:49.252Z,17.40
2022-12-19T06:47:18.148Z,19.47
2022-12-19T06:49:46.729Z,18.07
2022-12-19T06:52:16.013Z,17.73
2022-12-19T06:54:43.828Z,19.33
2022-12-19T06:57:10.931Z,19.13
2022-12-19T06:59:37.976Z,18.87
2022-12-19T07:02:19.728Z,19.77
2022-12-19T07:05:03.443Z,19.43
2022-12-19T07:07:30.787Z,20.73
2022-12-19T07:09:57.913Z,20.67
2022-12-19T07:12:24.982Z,21.53
2022-12-19T07:14:53.767Z,20.73
2022-12-19T07:17:21.615Z,21.70
2022-12-19T07:19:48.817Z,21.17
2022-12-19T07:22:15.935Z,20.67
2022-12-19T07:24:42.982Z,20.70
2022-12-19T07:27:10.114Z,19.87
2022-12-19T07:29:37.173Z,21.33
2022-12-19T07:32:04.250Z,19.67
2022-12-19T07:34:31.357Z,20.03
2022-12-19T07:36:58.463Z,20.27
2022-12-19T07:39:25.807Z,22.37
2022-12-19T07:41:52.912Z,20.40
2022-12-19T07:44:19.972Z,22.20
2022-12-19T07:46:47.886Z,21.27
2022-12-19T07:49:21.009Z,19.43
2022-12-19T07:51:49.824Z,21.10
2022-12-19T07:54:17.088Z,21.17
2022-12-19T07:56:44.250Z,19.60
2022-12-19T07:59:13.100Z,20.33
2022-12-19T08:01:40.399Z,19.53
2022-12-19T08:04:07.505Z,18.30
2022-12-19T08:06:40.572Z,17.47
2022-12-19T08:09:08.324Z,18.80
2022-12-19T08:11:35.599Z,17.93
2022-12-19T08:14:02.787Z,19.13
2022-12-19T08:16:29.915Z,18.23
2022-12-19T08:18:57.147Z,17.90
2022-12-19T08:21:25.091Z,19.27
2022-12-19T08:23:52.443Z,17.57
2022-12-19T08:26:24.936Z,19.40
2022-12-19T08:28:53.715Z,17.60
2022-12-19T08:31:21.738Z,17.90
2022-12-19T08:33:49.399Z,17.87
2022-12-19T08:36:18.993Z,18.10
2022-12-19T08:38:46.097Z,16.60
2022-12-19T08:41:13.390Z,17.07
2022-12-19T08:43:40.481Z,17.47
2022-12-19T08:46:07.983Z,17.37
2022-12-19T08:48:35.812Z,16.63
2022-12-19T08:51:04.287Z,17.20
2022-12-19T08:53:33.320Z,18.27
2022-12-19T08:56:15.110Z,18.47
2022-12-19T08:58:42.539Z,16.43
2022-12-19T09:01:16.006Z,18.40
2022-12-19T09:04:49.461Z,18.13
2022-12-19T09:06:30.350Z,16.13
2022-12-19T09:09:00.133Z,16.90
2022-12-19T09:11:27.741Z,17.93
2022-12-19T09:13:56.557Z,18.37
2022-12-19T09:16:24.954Z,16.80
2022-12-19T09:18:53.010Z,17.93
2022-12-19T09:21:22.387Z,20.53
2022-12-19T09:23:50.300Z,18.80
2022-12-19T09:26:17.398Z,18.77
2022-12-19T09:28:45.919Z,17.93
2022-12-19T09:31:14.649Z,17.83
2022-12-19T09:33:43.912Z,19.07
2022-12-19T09:36:29.175Z,17.20
2022-12-19T09:38:56.835Z,18.03
2022-12-19T09:41:32.798Z,18.27
2022-12-19T09:44:18.540Z,18.17
2022-12-19T09:46:48.958Z,19.27
2022-12-19T09:49:41.756Z,19.10
2022-12-19T09:52:31.017Z,18.47
2022-12-19T09:55:18.907Z,19.30
2022-12-19T09:57:58.484Z,19.53
2022-12-19T10:00:34.919Z,19.10
2022-12-19T10:03:15.391Z,20.10
2022-12-19T10:06:01.151Z,19.43
2022-12-19T10:09:02.571Z,20.63
2022-12-19T10:12:39.852Z,20.13
2022-12-19T10:14:29.025Z,19.73
2022-12-19T10:17:23.121Z,19.40
2022-12-19T10:20:04.448Z,18.97
2022-12-19T10:22:43.524Z,19.90
2022-12-19T10:25:27.660Z,19.50
2022-12-19T10:28:03.986Z,20.03
2022-12-19T10:30:33.093Z,19.00
2022-12-19T10:33:20.005Z,18.80
2022-12-19T10:35:54.565Z,20.23
2022-12-19T10:38:39.293Z,17.93
2022-12-19T10:41:17.367Z,18.13
2022-12-19T10:43:53.375Z,20.00
2022-12-19T10:46:24.297Z,18.47
2022-12-19T10:48:52.604Z,18.57
2022-12-19T10:51:24.896Z,19.17
2022-12-19T10:53:57.274Z,19.57
2022-12-19T10:56:28.259Z,18.87
2022-12-19T10:59:01.341Z,18.60
2022-12-19T11:01:33.215Z,18.80
2022-12-19T11:04:22.109Z,16.90
2022-12-19T11:07:03.129Z,17.43
2022-12-19T11:09:32.171Z,17.37
2022-12-19T11:15:48.708Z,17.93
2022-12-19T11:19:47.182Z,17.87
2022-12-19T11:29:25.218Z,16.33
2022-12-19T11:29:44.433Z,15.33
2022-12-19T11:30:06.371Z,16.20
2022-12-19T11:30:39.545Z,15.73
2022-12-19T11:31:51.429Z,15.70
2022-12-19T11:32:46.788Z,16.27
2022-12-19T11:35:37.096Z,14.63
2022-12-19T11:38:06.633Z,15.57
2022-12-19T11:40:36.614Z,14.43
2022-12-19T11:46:27.880Z,13.53
2022-12-19T11:49:03.156Z,13.47
2022-12-19T11:51:39.960Z,13.23
2022-12-19T11:54:10.976Z,14.30
2022-12-19T11:56:38.236Z,13.20
2022-12-19T11:59:14.449Z,12.77
2022-12-19T12:01:47.521Z,12.43
2022-12-19T12:04:33.967Z,12.33
2022-12-19T12:07:04.221Z,11.57
2022-12-19T12:14:27.556Z,13.10
2022-12-19T12:18:47.901Z,12.00
2022-12-19T12:20:40.132Z,12.97
2022-12-19T12:28:31.921Z,12.00
2022-12-19T12:31:00.843Z,12.00
2022-12-19T12:31:44.725Z,11.77
2022-12-19T12:35:46.742Z,12.17
2022-12-19T12:39:39.103Z,19.20
2022-12-19T12:42:13.338Z,11.57
2022-12-19T12:44:45.530Z,10.90
2022-12-19T12:47:20.613Z,11.93
2022-12-19T12:50:02.507Z,10.53
2022-12-19T12:52:35.809Z,11.37
2022-12-19T12:55:04.800Z,11.27
2022-12-19T12:57:36.937Z,11.03
2022-12-19T13:00:22.904Z,10.77
2022-12-19T13:02:55.238Z,11.00
2022-12-19T13:05:35.012Z,10.53
2022-12-19T13:08:02.643Z,11.10
2022-12-19T13:10:31.268Z,10.73
2022-12-19T13:13:01.161Z,11.03
2022-12-19T13:15:28.302Z,10.80
2022-12-19T13:17:55.390Z,10.57
2022-12-19T13:20:27.757Z,10.70
2022-12-19T13:22:58.249Z,10.93
2022-12-19T13:25:28.149Z,10.50
2022-12-19T13:28:15.732Z,11.60
2022-12-19T13:31:18.650Z,10.93
2022-12-19T13:33:56.349Z,12.00
2022-12-19T13:39:47.639Z,10.87
2022-12-19T13:39:56.400Z,10.30
2022-12-19T13:45:24.492Z,11.20
2022-12-19T13:47:51.912Z,10.60
2022-12-19T13:50:18.995Z,10.73
2022-12-19T13:52:52.725Z,10.10
2022-12-19T13:55:20.198Z,9.43
2022-12-19T13:57:48.939Z,9.73
2022-12-19T14:00:20.676Z,8.83
2022-12-19T14:02:51.163Z,10.77
2022-12-19T14:05:22.389Z,10.20
2022-12-19T14:08:09.068Z,10.47
2022-12-19T14:11:40.473Z,9.80
2022-12-19T14:13:58.132Z,9.43
2022-12-19T14:16:35.010Z,9.33
2022-12-19T14:19:29.885Z,8.60
2022-12-19T14:22:20.855Z,9.17
2022-12-19T14:26:06.576Z,8.33
2022-12-19T14:28:26.677Z,7.97
2022-12-19T14:30:33.855Z,7.07
2022-12-19T14:33:46.857Z,8.50
2022-12-19T14:36:06.967Z,8.27
2022-12-19T14:39:24.875Z,8.30
2022-12-19T14:41:48.403Z,8.13
2022-12-19T14:52:36.162Z,7.43
2022-12-19T14:53:52.475Z,7.80
2022-12-19T14:54:09.044Z,7.93
2022-12-19T14:54:40.481Z,7.83
2022-12-19T14:56:04.217Z,7.83
2022-12-19T14:58:55.284Z,7.97
2022-12-19T15:01:24.999Z,7.83
2022-12-19T15:04:47.420Z,7.03
2022-12-19T15:07:09.331Z,7.63
2022-12-19T15:11:04.816Z,7.23
2022-12-19T15:14:48.627Z,7.40
2022-12-19T15:15:48.122Z,7.77
2022-12-19T15:18:19.947Z,8.17
2022-12-19T15:20:47.032Z,8.57
2022-12-19T15:23:18.202Z,25.27
2022-12-19T15:26:06.619Z,8.77
2022-12-19T15:28:43.766Z,8.67
2022-12-19T15:31:26.345Z,9.10
2022-12-19T15:34:33.089Z,8.97
2022-12-19T15:36:40.636Z,8.17
2022-12-19T15:39:07.910Z,8.53
2022-12-19T15:41:35.328Z,9.90
2022-12-19T15:44:07.903Z,9.27
2022-12-19T15:46:35.863Z,9.70
2022-12-19T15:49:03.064Z,9.97
2022-12-19T15:51:30.150Z,9.57
2022-12-19T15:54:22.111Z,9.47
2022-12-19T15:56:48.164Z,9.00
2022-12-19T15:59:31.263Z,10.10
2022-12-19T16:02:04.428Z,8.47
2022-12-19T16:04:32.105Z,8.70
2022-12-19T16:06:59.373Z,8.33
2022-12-19T16:09:26.856Z,8.73
2022-12-19T16:11:55.100Z,9.50
2022-12-19T16:14:22.756Z,9.27
2022-12-19T16:16:54.763Z,8.93
2022-12-19T16:19:29.073Z,9.83
2022-12-19T16:21:56.395Z,10.63
2022-12-19T16:24:23.655Z,8.73
2022-12-19T16:26:58.044Z,9.20
2022-12-19T16:29:26.843Z,8.07
2022-12-19T16:31:54.876Z,7.80
2022-12-19T16:34:22.883Z,7.40
2022-12-19T16:36:50.097Z,7.93
2022-12-19T16:39:17.693Z,7.87
2022-12-19T16:41:45.460Z,7.47
2022-12-19T16:44:19.498Z,7.03
2022-12-19T16:46:51.082Z,8.03
2022-12-19T16:49:25.660Z,7.53
2022-12-19T16:51:52.826Z,8.40
2022-12-19T16:54:21.100Z,7.40
2022-12-19T16:56:49.485Z,8.10
2022-12-19T16:59:42.912Z,8.20
2022-12-19T17:02:33.107Z,7.50
2022-12-19T17:05:00.274Z,7.40
2022-12-19T17:07:27.800Z,8.33
2022-12-19T17:09:54.852Z,8.03
2022-12-19T17:12:21.933Z,8.10
2022-12-19T17:14:49.019Z,8.23
2022-12-19T17:17:16.425Z,8.20
2022-12-19T17:19:45.243Z,8.07
2022-12-19T17:22:13.783Z,8.50
2022-12-19T17:24:41.004Z,7.37
2022-12-19T17:27:08.237Z,8.43
2022-12-19T17:29:35.337Z,8.93
2022-12-19T17:32:02.605Z,7.90
2022-12-19T17:34:31.274Z,7.30
2022-12-19T17:37:00.430Z,8.10
2022-12-19T17:39:28.962Z,8.47
2022-12-19T17:42:07.501Z,8.23
2022-12-19T17:44:34.749Z,7.97
2022-12-19T17:47:01.991Z,7.77
2022-12-19T17:49:30.685Z,7.50
2022-12-19T17:51:57.809Z,7.87
2022-12-19T17:54:25.102Z,7.43
2022-12-19T17:56:52.161Z,7.27
2022-12-19T17:59:20.876Z,7.43
2022-12-19T18:01:48.260Z,7.03
2022-12-19T18:04:16.546Z,7.57
2022-12-19T18:06:43.663Z,7.50
2022-12-19T18:09:18.668Z,6.57
2022-12-19T18:11:46.115Z,6.83
2022-12-19T18:14:13.304Z,6.20
2022-12-19T18:16:40.669Z,6.33
2022-12-19T18:19:07.912Z,7.00
2022-12-19T18:21:35.049Z,6.77
2022-12-19T18:24:02.159Z,7.03
2022-12-19T18:26:29.480Z,6.53
2022-12-19T18:28:56.556Z,6.40
2022-12-19T18:31:28.177Z,6.40
2022-12-19T18:33:59.584Z,6.30
2022-12-19T18:36:35.277Z,6.57
2022-12-19T18:39:02.322Z,5.93
2022-12-19T18:41:29.447Z,5.43
2022-12-19T18:43:56.491Z,6.20
2022-12-19T18:46:26.728Z,5.90
2022-12-19T18:48:53.931Z,5.97
2022-12-19T18:51:23.125Z,6.07
2022-12-19T18:53:50.608Z,6.33
2022-12-19T18:56:17.867Z,5.80
2022-12-19T18:58:45.000Z,6.20
2022-12-19T19:01:21.643Z,6.53
2022-12-19T19:03:56.353Z,5.90
2022-12-19T19:06:25.694Z,6.10
2022-12-19T19:08:53.173Z,6.10
2022-12-19T19:11:23.579Z,5.37
2022-12-19T19:13:50.961Z,5.23
2022-12-19T19:16:23.188Z,5.57
2022-12-19T19:18:52.655Z,6.13
2022-12-19T19:21:20.325Z,5.50
2022-12-19T19:23:54.683Z,6.03
2022-12-19T19:26:22.133Z,6.63
2022-12-19T19:28:52.465Z,6.23
2022-12-19T19:31:20.633Z,5.73
2022-12-19T19:33:50.159Z,6.00
2022-12-19T19:36:20.028Z,5.33
2022-12-19T19:38:49.572Z,5.73
2022-12-19T19:41:16.662Z,5.87
2022-12-19T19:43:43.749Z,6.37
2022-12-19T19:46:11.154Z,5.73
2022-12-19T19:48:38.264Z,6.27
2022-12-19T19:51:05.381Z,4.70
2022-12-19T19:53:32.449Z,5.67
2022-12-19T19:56:00.840Z,5.30
2022-12-19T19:58:28.715Z,5.43
2022-12-19T20:00:56.655Z,5.80
2022-12-19T20:03:24.462Z,6.27
2022-12-19T20:05:58.615Z,5.27
2022-12-19T20:08:25.724Z,6.03
2022-12-19T20:11:00.067Z,5.17
2022-12-19T20:13:29.421Z,6.50
2022-12-19T20:16:02.117Z,5.03
2022-12-19T20:18:29.547Z,5.27
2022-12-19T20:20:58.092Z,5.40
2022-12-19T20:23:25.501Z,5.40
2022-12-19T20:25:52.650Z,5.03
2022-12-19T20:28:19.777Z,5.40
2022-12-19T20:30:47.409Z,5.33
2022-12-19T20:33:14.579Z,5.23
2022-12-19T20:35:42.613Z,5.27
2022-12-19T20:38:09.803Z,4.73
2022-12-19T20:40:36.968Z,5.20
2022-12-19T20:43:04.074Z,4.63
2022-12-19T20:45:31.175Z,5.60
2022-12-19T20:47:58.363Z,5.60
2022-12-19T20:50:25.693Z,4.97
2022-12-19T20:52:52.988Z,5.70
2022-12-19T20:55:20.505Z,5.07
2022-12-19T20:57:47.624Z,5.50
2022-12-19T21:00:15.098Z,5.53
2022-12-19T21:03:25.006Z,4.67
2022-12-19T21:05:29.283Z,5.40
2022-12-19T21:07:56.540Z,5.30
2022-12-19T21:10:23.621Z,5.07
2022-12-19T21:12:50.711Z,5.53
2022-12-19T21:15:17.878Z,5.63
2022-12-19T21:17:45.006Z,5.13
2022-12-19T21:20:12.466Z,5.17
2022-12-19T21:22:39.598Z,4.83
2022-12-19T21:25:06.875Z,4.77
2022-12-19T21:27:34.049Z,4.97
2022-12-19T21:30:07.523Z,6.13
2022-12-19T21:32:34.604Z,5.00
2022-12-19T21:35:01.737Z,5.23
2022-12-19T21:37:28.870Z,4.30
2022-12-19T21:39:56.020Z,5.10
2022-12-19T21:42:23.177Z,5.13
2022-12-19T21:44:51.044Z,5.33
2022-12-19T21:47:18.405Z,5.17
2022-12-19T21:49:45.523Z,4.97
2022-12-19T21:52:12.756Z,4.47
2022-12-19T21:54:39.852Z,4.90
2022-12-19T21:57:06.885Z,5.27
2022-12-19T21:59:33.957Z,4.77
2022-12-19T22:02:01.190Z,4.60
2022-12-19T22:04:28.529Z,4.33
2022-12-19T22:06:55.594Z,4.80
2022-12-19T22:09:23.070Z,4.90
2022-12-19T22:11:50.280Z,4.73
2022-12-19T22:14:18.032Z,4.30
2022-12-19T22:16:45.187Z,5.23
2022-12-19T22:19:16.379Z,4.77
2022-12-19T22:21:43.894Z,4.60
2022-12-19T22:24:12.113Z,4.33
2022-12-19T22:26:39.646Z,5.00
2022-12-19T22:29:08.380Z,4.40
2022-12-19T22:31:36.004Z,4.93
2022-12-19T22:34:04.573Z,4.67
2022-12-19T22:36:32.732Z,4.37
2022-12-19T22:39:00.572Z,4.37
2022-12-19T22:41:27.858Z,4.13
2022-12-19T22:43:55.202Z,5.20
2022-12-19T22:46:23.520Z,4.93
2022-12-19T22:48:54.020Z,5.07
2022-12-19T22:51:21.187Z,4.30
2022-12-19T22:53:48.662Z,4.80
2022-12-19T22:56:17.118Z,4.33
2022-12-19T22:58:45.446Z,5.27
2022-12-19T23:01:16.867Z,5.30
2022-12-19T23:03:44.773Z,4.70
2022-12-19T23:06:12.310Z,4.70
2022-12-19T23:08:39.789Z,5.00
2022-12-19T23:11:08.496Z,5.10
2022-12-19T23:13:35.579Z,4.57
2022-12-19T23:16:05.478Z,4.63
2022-12-19T23:18:32.561Z,4.43
2022-12-19T23:21:03.918Z,4.63
2022-12-19T23:23:39.831Z,5.10
2022-12-19T23:26:15.148Z,4.80
2022-12-19T23:28:43.564Z,4.43
2022-12-19T23:31:13.110Z,4.97
2022-12-19T23:33:40.374Z,4.67
2022-12-19T23:36:08.116Z,5.30
2022-12-19T23:38:35.290Z,4.67
2022-12-19T23:41:03.331Z,4.47
2022-12-19T23:43:30.519Z,4.77
2022-12-19T23:45:57.731Z,4.27
2022-12-19T23:48:28.510Z,4.30
2022-12-19T23:50:59.481Z,4.77
2022-12-19T23:53:26.899Z,4.23
2022-12-19T23:55:54.170Z,4.30
2022-12-19T23:58:24.582Z,4.53
